Time;durP1;ratioP1;P1;durP2;ratioP2;P2;SDS_P1;SDS_P2;PMS_P1;PMS_P2;Temp;Humidity;BMP_temperature;BMP_pressure;BME280_temperature;BME280_humidity;BME280_pressure;Samples;Min_cycle;Max_cycle;Signal;HPM_P1;HPM_P2
2021/09/29 00:02:21;;;;;;;;;2.00;2.00;;;;;22.92;47.66;100889.94;6220691;22;45737;-69
2021/09/29 00:04:46;;;;;;;;;1.00;1.00;;;;;22.92;47.17;100876.63;6221330;22;45260;-69
2021/09/29 00:07:12;;;;;;;;;1.50;1.50;;;;;22.94;47.17;100871.28;6220209;22;64679;-69
2021/09/29 00:09:37;;;;;;;;;1.25;1.25;;;;;22.92;47.34;100873.97;6246393;22;45203;-70
2021/09/29 00:12:03;;;;;;;;;3.50;2.50;;;;;22.91;47.21;100866.91;6220833;22;51956;-70
2021/09/29 00:14:28;;;;;;;;;2.00;2.00;;;;;22.91;47.74;100864.25;6221106;22;45721;-69
2021/09/29 00:16:54;;;;;;;;;2.75;1.75;;;;;22.89;47.18;100860.78;6195762;22;45368;-70
2021/09/29 00:19:19;;;;;;;;;3.00;2.25;;;;;22.89;47.15;100866.13;6195338;22;45259;-69
2021/09/29 00:21:45;;;;;;;;;2.25;2.00;;;;;22.88;47.30;100869.72;6196091;22;45261;-69
2021/09/29 00:24:10;;;;;;;;;3.00;2.00;;;;;22.87;47.53;100848.50;6170624;22;45630;-70
2021/09/29 00:26:35;;;;;;;;;3.00;3.00;;;;;22.89;47.32;100860.78;6169961;22;46889;-70
2021/09/29 00:29:01;;;;;;;;;1.50;1.00;;;;;22.86;47.24;100860.94;6247382;22;56270;-70
2021/09/29 00:34:00;;;;;;;;;2.00;2.00;;;;;22.88;47.63;100867.06;6222122;22;45308;-70
2021/09/29 00:36:26;;;;;;;;;2.00;2.00;;;;;22.87;47.66;100860.00;6220735;22;48111;-69
2021/09/29 00:38:52;;;;;;;;;2.00;2.00;;;;;22.87;47.48;100852.00;6220689;22;45288;-69
2021/09/29 00:41:17;;;;;;;;;2.75;2.00;;;;;22.88;47.55;100852.88;6195860;22;45387;-70
2021/09/29 00:43:43;;;;;;;;;2.00;2.00;;;;;22.87;47.19;100854.66;6170018;22;50872;-69
2021/09/29 00:46:08;;;;;;;;;3.00;2.75;;;;;22.84;47.22;100842.34;6169409;22;61913;-69
2021/09/29 00:48:33;;;;;;;;;3.00;1.75;;;;;22.87;47.72;100835.19;6245653;22;45274;-70
2021/09/29 00:50:59;;;;;;;;;2.00;2.00;;;;;22.88;47.77;100836.91;6220813;22;45935;-70
2021/09/29 00:53:24;;;;;;;;;3.75;3.00;;;;;22.87;47.60;100837.84;6221260;22;45333;-69
2021/09/29 00:55:50;;;;;;;;;1.00;1.00;;;;;22.87;47.59;100841.38;6220493;22;46986;-70
2021/09/29 00:58:15;;;;;;;;;1.75;1.75;;;;;22.86;48.06;100839.63;6220316;22;58144;-70
2021/09/29 01:00:41;;;;;;;;;1.50;1.50;;;;;22.83;47.61;100829.94;6219622;22;57840;-69
2021/09/29 01:03:06;;;;;;;;;2.50;2.00;;;;;22.84;47.50;100841.44;6195782;22;45192;-69
2021/09/29 01:05:32;;;;;;;;;2.00;1.00;;;;;22.84;47.72;100821.03;6220948;22;45223;-70
2021/09/29 01:08:03;;;;;;;;;1.00;1.00;;;;;22.83;47.52;100818.41;6195660;22;45224;-69
2021/09/29 01:10:47;;;;;;;;;2.00;1.00;;;;;22.83;47.94;100821.06;6221825;22;45229;-69
2021/09/29 01:13:36;;;;;;;;;3.25;2.50;;;;;22.81;47.67;100813.16;6247904;22;45204;-69
2021/09/29 01:16:03;;;;;;;;;1.50;1.50;;;;;22.80;47.62;100813.22;6221336;22;46529;-69
2021/09/29 01:18:29;;;;;;;;;3.50;2.00;;;;;22.81;47.95;100817.63;6195528;22;45344;-69
2021/09/29 01:21:01;;;;;;;;;1.25;1.25;;;;;22.81;47.90;100817.63;6195731;22;45307;-69
2021/09/29 01:24:21;;;;;;;;;3.25;2.25;;;;;22.80;47.94;100807.91;6196335;22;45401;-69
2021/09/29 01:26:46;;;;;;;;;3.00;1.00;;;;;22.79;48.21;100808.84;6183107;23;47919;-70
2021/09/29 01:29:14;;;;;;;;;1.75;0.75;;;;;22.76;47.87;100806.28;6187576;22;59494;-69
2021/09/29 01:31:39;;;;;;;;;2.25;2.25;;;;;22.74;47.83;100802.81;6195664;22;45276;-69
2021/09/29 01:34:06;;;;;;;;;3.00;2.00;;;;;22.77;47.65;100816.03;6169546;22;60033;-69
2021/09/29 01:36:31;;;;;;;;;1.00;1.00;;;;;22.76;48.06;100806.28;6195536;22;45231;-69
2021/09/29 01:38:58;;;;;;;;;1.00;1.00;;;;;22.77;47.62;100797.41;6195196;22;45186;-69
2021/09/29 01:41:24;;;;;;;;;2.75;1.50;;;;;22.77;47.98;100802.72;6220781;22;45393;-69
2021/09/29 01:43:50;;;;;;;;;2.00;2.00;;;;;22.76;47.81;100792.97;6195619;22;45242;-69
2021/09/29 01:46:15;;;;;;;;;1.00;1.00;;;;;22.77;48.28;100789.41;6195377;22;46117;-69
2021/09/29 01:49:03;;;;;;;;;3.25;2.00;;;;;22.78;48.33;100791.16;6195208;22;45349;-70
2021/09/29 01:51:31;;;;;;;;;2.25;1.75;;;;;22.77;47.88;100784.97;6224047;22;45379;-69
2021/09/29 01:53:57;;;;;;;;;2.00;1.00;;;;;22.77;48.04;100795.59;6195212;22;45141;-69
2021/09/29 01:56:22;;;;;;;;;2.25;2.00;;;;;22.78;48.34;100785.81;6195446;22;45284;-69
2021/09/29 01:58:47;;;;;;;;;1.25;1.25;;;;;22.73;48.14;100791.31;6219984;22;45687;-69
2021/09/29 02:01:13;;;;;;;;;1.00;1.00;;;;;22.77;47.90;100792.06;6194740;22;60563;-69
2021/09/29 02:03:43;;;;;;;;;1.75;1.75;;;;;22.78;47.80;100796.47;6195095;22;45459;-69
2021/09/29 02:06:08;;;;;;;;;5.00;1.75;;;;;22.76;48.54;100792.97;6220115;22;46065;-69
2021/09/29 02:08:34;;;;;;;;;1.00;1.00;;;;;22.75;48.37;100789.44;6247076;22;45299;-69
2021/09/29 02:10:59;;;;;;;;;3.25;2.00;;;;;22.75;48.29;100788.59;6219565;22;60697;-69
2021/09/29 02:13:24;;;;;;;;;2.00;1.00;;;;;22.75;48.37;100785.94;6194188;22;64515;-69
2021/09/29 02:15:50;;;;;;;;;3.00;1.75;;;;;22.74;48.07;100784.19;6219548;22;58971;-70
2021/09/29 02:18:15;;;;;;;;;2.25;1.25;;;;;22.73;48.36;100778.00;6194497;22;45260;-69
2021/09/29 02:20:41;;;;;;;;;1.50;1.50;;;;;22.73;48.39;100774.50;6220686;22;45234;-69
2021/09/29 02:23:06;;;;;;;;;1.50;1.50;;;;;22.72;48.44;100778.06;6220895;22;45512;-69
2021/09/29 02:25:32;;;;;;;;;2.50;1.25;;;;;22.71;48.03;100771.03;6221240;22;60674;-69
2021/09/29 02:27:57;;;;;;;;;2.00;2.00;;;;;22.66;48.06;100776.53;6195629;22;61707;-69
2021/09/29 02:30:22;;;;;;;;;3.25;1.00;;;;;22.69;48.50;100783.53;6195899;22;45457;-69
2021/09/29 02:32:48;;;;;;;;;2.75;1.00;;;;;22.68;48.43;100776.47;6247791;22;61151;-69
2021/09/29 02:35:13;;;;;;;;;1.00;1.00;;;;;22.68;48.64;100779.16;6221598;22;45852;-69
2021/09/29 02:37:39;;;;;;;;;1.00;1.00;;;;;22.64;48.38;100770.41;6221115;22;55775;-69
2021/09/29 02:40:05;;;;;;;;;2.00;2.00;;;;;22.66;48.31;100784.50;6221223;22;45546;-69
2021/09/29 02:42:30;;;;;;;;;3.50;2.00;;;;;22.65;48.38;100788.09;6248235;22;45214;-69
2021/09/29 02:44:56;;;;;;;;;1.00;1.00;;;;;22.65;48.76;100782.78;6247695;22;65309;-69
2021/09/29 02:47:21;;;;;;;;;2.00;1.00;;;;;22.65;48.32;100782.78;6221435;22;45201;-69
2021/09/29 02:49:47;;;;;;;;;1.00;1.00;;;;;22.64;48.65;100774.84;6248230;22;45248;-69
2021/09/29 02:52:13;;;;;;;;;1.00;1.00;;;;;22.64;48.88;100786.38;6221796;22;45316;-69
2021/09/29 02:54:38;;;;;;;;;1.00;1.00;;;;;22.67;48.46;100790.69;6247765;22;66438;-70
2021/09/29 02:57:04;;;;;;;;;1.50;1.50;;;;;22.64;48.90;100789.03;6220889;22;61230;-70
2021/09/29 02:59:29;;;;;;;;;1.00;1.00;;;;;22.66;48.91;100799.59;6194847;22;57274;-69
2021/09/29 03:01:54;;;;;;;;;0.00;0.00;;;;;22.66;48.70;100804.91;6220923;22;59490;-69
2021/09/29 03:04:20;;;;;;;;;0.25;0.25;;;;;22.66;48.85;100800.47;6194674;22;65300;-69
2021/09/29 03:06:45;;;;;;;;;2.00;2.00;;;;;22.65;49.21;100790.75;6246636;22;45164;-69
2021/09/29 03:09:10;;;;;;;;;2.00;1.00;;;;;22.64;49.07;100788.16;6221408;22;48153;-69
2021/09/29 03:11:36;;;;;;;;;3.75;1.00;;;;;22.65;49.56;100795.22;6196087;22;48394;-69
2021/09/29 03:14:01;;;;;;;;;1.00;1.00;;;;;22.61;48.92;100791.81;6196033;22;45908;-69
2021/09/29 03:16:27;;;;;;;;;1.00;1.00;;;;;22.62;48.65;100798.88;6221633;22;45209;-69
2021/09/29 03:18:54;;;;;;;;;2.00;1.00;;;;;22.62;48.88;100793.53;6221143;22;45285;-69
2021/09/29 03:21:20;;;;;;;;;3.00;1.00;;;;;22.62;49.03;100796.22;6196196;22;45376;-70
2021/09/29 03:23:45;;;;;;;;;2.25;1.00;;;;;22.63;49.35;100795.28;6221431;22;49940;-69
2021/09/29 03:26:11;;;;;;;;;1.25;1.25;;;;;22.62;49.33;100782.03;6196158;22;45325;-69
2021/09/29 03:28:36;;;;;;;;;0.00;0.00;;;;;22.63;49.13;100799.72;6195570;22;45221;-69
2021/09/29 03:31:02;;;;;;;;;1.00;1.00;;;;;22.61;48.64;100801.59;6195954;22;45291;-69
2021/09/29 03:33:27;;;;;;;;;1.00;1.00;;;;;22.61;49.27;100798.94;6195885;22;45275;-69
2021/09/29 03:35:53;;;;;;;;;1.50;1.50;;;;;22.57;49.01;100785.72;6220927;22;53692;-69
2021/09/29 03:38:18;;;;;;;;;0.25;0.25;;;;;22.57;49.40;100793.72;6248552;22;45267;-69
2021/09/29 03:40:43;;;;;;;;;1.00;1.00;;;;;22.58;49.38;100790.13;6247801;22;45447;-69
2021/09/29 03:43:09;;;;;;;;;1.00;1.00;;;;;22.58;49.41;100787.47;6221274;22;45348;-69
2021/09/29 03:45:35;;;;;;;;;3.25;1.00;;;;;22.57;49.17;100788.41;6248174;22;45381;-69
2021/09/29 03:48:00;;;;;;;;;1.00;1.00;;;;;22.57;48.97;100801.69;6196038;22;45176;-69
2021/09/29 03:50:25;;;;;;;;;2.25;1.25;;;;;22.55;49.63;100787.59;6220983;22;45384;-69
2021/09/29 03:52:51;;;;;;;;;1.25;1.00;;;;;22.55;49.21;100794.72;6195486;22;55353;-69
2021/09/29 03:55:16;;;;;;;;;2.00;1.00;;;;;22.55;49.71;100808.00;6195642;22;53729;-69
2021/09/29 03:57:42;;;;;;;;;2.00;2.00;;;;;22.55;49.49;100808.88;6221636;22;45662;-69
2021/09/29 04:00:09;;;;;;;;;0.50;0.50;;;;;22.56;49.18;100804.41;6196120;22;45201;-69
2021/09/29 04:02:35;;;;;;;;;0.75;0.75;;;;;22.56;49.21;100804.41;6247678;22;46304;-69
2021/09/29 04:05:00;;;;;;;;;0.25;0.25;;;;;22.56;49.21;100809.75;6221390;22;45251;-69
2021/09/29 04:07:26;;;;;;;;;2.00;1.00;;;;;22.56;49.22;100809.75;6221181;22;45288;-69
2021/09/29 04:09:51;;;;;;;;;1.00;1.00;;;;;22.55;49.86;100806.22;6221236;22;48794;-70
2021/09/29 04:12:17;;;;;;;;;1.00;1.00;;;;;22.56;49.65;100809.75;6195947;22;45277;-69
2021/09/29 04:14:42;;;;;;;;;1.00;1.00;;;;;22.55;49.73;100808.88;6195163;22;45280;-69
2021/09/29 04:17:08;;;;;;;;;0.75;0.75;;;;;22.55;49.28;100805.34;6220849;22;45343;-70
2021/09/29 04:19:33;;;;;;;;;0.00;0.00;;;;;22.56;49.89;100807.94;6195421;22;58224;-70
2021/09/29 04:21:59;;;;;;;;;0.50;0.50;;;;;22.55;49.85;100816.84;6220656;22;47012;-70
2021/09/29 04:24:24;;;;;;;;;1.00;1.00;;;;;22.55;49.85;100814.19;6194978;22;64617;-70
2021/09/29 04:26:49;;;;;;;;;0.75;0.75;;;;;22.53;49.53;100816.06;6195077;22;59525;-70
2021/09/29 04:29:15;;;;;;;;;1.00;1.00;;;;;22.55;49.68;100816.84;6194843;22;63378;-70
2021/09/29 04:31:40;;;;;;;;;1.75;1.75;;;;;22.53;49.60;100818.72;6195597;22;49916;-70
2021/09/29 04:34:05;;;;;;;;;1.25;1.00;;;;;22.54;49.62;100819.59;6220421;22;60555;-69
2021/09/29 04:36:31;;;;;;;;;1.25;1.00;;;;;22.51;49.90;100811.72;6221390;22;45221;-70
2021/09/29 04:38:56;;;;;;;;;0.00;0.00;;;;;22.51;49.88;100817.06;6194871;22;55414;-70
2021/09/29 04:41:23;;;;;;;;;2.00;0.00;;;;;22.53;49.74;100826.69;6220680;22;50247;-70
2021/09/29 04:43:48;;;;;;;;;1.75;1.00;;;;;22.48;49.84;100815.34;6221053;22;45212;-70
2021/09/29 04:46:14;;;;;;;;;1.25;1.25;;;;;22.51;50.41;100825.91;6195531;22;45199;-70
2021/09/29 04:48:39;;;;;;;;;1.00;1.00;;;;;22.51;50.29;100831.22;6247478;22;51252;-70
2021/09/29 04:51:05;;;;;;;;;1.00;0.00;;;;;22.51;50.34;100836.53;6220784;22;47931;-70
2021/09/29 04:53:30;;;;;;;;;0.00;0.00;;;;;22.47;50.29;100829.59;6195888;22;45324;-70
2021/09/29 04:55:59;;;;;;;;;2.00;1.00;;;;;22.49;50.34;100838.38;6196063;22;45182;-70
2021/09/29 04:58:25;;;;;;;;;0.50;0.50;;;;;22.50;50.58;100839.22;6197483;22;45222;-70
2021/09/29 05:00:50;;;;;;;;;0.25;0.25;;;;;22.48;50.51;100838.44;6220641;22;45134;-70
2021/09/29 05:03:18;;;;;;;;;1.00;1.00;;;;;22.46;50.54;100825.19;6220347;22;54905;-68
2021/09/29 05:05:43;;;;;;;;;1.00;1.00;;;;;22.49;51.00;100858.78;6195973;22;45154;-69
2021/09/29 05:08:08;;;;;;;;;1.00;0.25;;;;;22.47;50.71;100882.78;6221206;22;45274;-69
2021/09/29 05:11:00;;;;;;;;;1.00;1.00;;;;;22.48;50.66;100878.31;6195481;22;45138;-69
2021/09/29 05:13:33;;;;;;;;;0.00;0.00;;;;;22.48;51.19;100903.13;6212921;22;45171;-69
2021/09/29 05:15:59;;;;;;;;;1.75;1.00;;;;;22.49;51.99;100886.25;6198012;22;45382;-69
2021/09/29 05:18:24;;;;;;;;;1.75;1.00;;;;;22.55;52.44;100880.69;6195274;22;45365;-67
2021/09/29 05:20:50;;;;;;;;;1.25;1.25;;;;;22.65;52.00;100889.19;6195938;22;45276;-69
2021/09/29 05:23:15;;;;;;;;;1.00;1.00;;;;;22.73;52.55;100884.44;6170164;22;45305;-69
2021/09/29 05:25:41;;;;;;;;;2.00;2.00;;;;;22.80;51.73;100882.41;6195671;22;45335;-70
2021/09/29 05:28:07;;;;;;;;;0.25;0.25;;;;;22.89;51.69;100883.88;6219200;22;64196;-70
2021/09/29 05:30:32;;;;;;;;;1.25;1.00;;;;;22.93;51.58;100889.00;6194894;22;47143;-69
2021/09/29 05:32:58;;;;;;;;;2.50;1.50;;;;;22.97;51.92;100895.97;6244334;22;63831;-70
2021/09/29 05:35:23;;;;;;;;;2.50;1.00;;;;;23.00;51.80;100901.16;6219573;22;63091;-68
2021/09/29 05:37:48;;;;;;;;;1.00;1.00;;;;;23.03;51.53;100906.38;6195116;22;47046;-68
2021/09/29 05:40:14;;;;;;;;;1.00;1.00;;;;;23.05;51.92;100915.16;6219438;22;65045;-68
2021/09/29 05:42:39;;;;;;;;;0.75;0.75;;;;;23.08;52.05;100915.03;6194890;22;57784;-69
2021/09/29 05:45:05;;;;;;;;;2.00;1.25;;;;;23.12;52.37;100923.78;6220018;22;45730;-69
2021/09/29 05:47:31;;;;;;;;;1.00;1.00;;;;;23.16;52.12;100921.84;6246987;22;45280;-69
2021/09/29 05:49:56;;;;;;;;;1.00;1.00;;;;;23.20;51.91;100935.00;6220478;22;48601;-69
2021/09/29 05:52:21;;;;;;;;;2.00;1.00;;;;;23.22;51.51;100933.13;6219338;22;67630;-68
2021/09/29 05:54:47;;;;;;;;;1.25;1.00;;;;;23.22;51.42;100927.81;6220215;22;49389;-69
2021/09/29 05:57:13;;;;;;;;;7.00;5.00;;;;;23.25;52.09;100940.13;6245811;22;45524;-68
2021/09/29 05:59:39;;;;;;;;;4.25;3.00;;;;;23.28;52.07;100937.31;6196717;22;45311;-69
2021/09/29 06:02:04;;;;;;;;;3.00;2.00;;;;;23.32;51.38;100952.25;6196371;22;45291;-68
2021/09/29 06:04:30;;;;;;;;;3.50;2.50;;;;;23.30;51.99;100951.47;6196111;22;53765;-69
2021/09/29 06:06:57;;;;;;;;;3.00;2.00;;;;;23.28;51.99;100958.63;6195386;22;56499;-69
2021/09/29 06:09:23;;;;;;;;;2.50;2.50;;;;;23.25;51.28;100961.44;6246590;22;47737;-69
2021/09/29 06:11:48;;;;;;;;;2.00;2.00;;;;;23.24;51.34;100967.69;6221158;22;60167;-69
2021/09/29 06:14:15;;;;;;;;;4.50;3.50;;;;;23.22;51.36;100966.88;6221766;22;45735;-69
2021/09/29 06:16:44;;;;;;;;;2.50;2.50;;;;;23.22;51.61;100972.22;6248925;22;45304;-69
2021/09/29 06:19:10;;;;;;;;;2.00;2.00;;;;;23.19;51.28;100990.94;6196576;22;48245;-69
2021/09/29 06:21:36;;;;;;;;;1.75;1.25;;;;;23.13;50.69;100997.41;6221018;22;45175;-67
2021/09/29 06:24:02;;;;;;;;;1.00;1.00;;;;;23.00;50.67;101014.75;6221484;22;45111;-68
2021/09/29 06:26:27;;;;;;;;;3.75;2.25;;;;;22.81;50.45;101012.75;6196287;22;50860;-69
2021/09/29 06:28:53;;;;;;;;;1.75;1.00;;;;;22.63;51.11;101013.44;6220880;22;54016;-69
2021/09/29 06:31:18;;;;;;;;;2.00;1.00;;;;;22.51;50.90;101029.84;6170507;22;58063;-70
2021/09/29 06:33:45;;;;;;;;;0.00;0.00;;;;;22.37;50.80;101035.63;6220577;22;55662;-70
2021/09/29 06:36:10;;;;;;;;;0.50;0.50;;;;;22.31;50.76;101041.16;6245987;22;45420;-69
2021/09/29 06:38:36;;;;;;;;;3.50;1.00;;;;;22.30;50.33;101044.75;6195472;22;57780;-69
2021/09/29 06:41:01;;;;;;;;;0.00;0.00;;;;;22.26;50.34;101037.81;6195969;22;45193;-69
2021/09/29 06:43:26;;;;;;;;;0.50;0.50;;;;;22.18;49.81;101047.84;6213710;22;51653;-71
2021/09/29 06:45:52;;;;;;;;;0.75;0.00;;;;;22.11;49.71;101051.63;6234297;22;45667;-70
2021/09/29 06:48:17;;;;;;;;;0.50;0.50;;;;;22.07;49.57;101063.25;6246172;22;46333;-70
2021/09/29 06:50:43;;;;;;;;;0.75;0.00;;;;;22.02;49.45;101061.59;6169795;22;45291;-70
2021/09/29 06:53:18;;;;;;;;;0.50;0.50;;;;;22.00;49.01;101070.56;6212077;22;45359;-70
2021/09/29 06:55:44;;;;;;;;;1.25;0.00;;;;;21.93;48.87;101064.56;6194727;22;45661;-70
2021/09/29 06:58:10;;;;;;;;;0.00;0.00;;;;;21.88;48.79;101070.94;6220519;22;46487;-70
2021/09/29 07:00:35;;;;;;;;;0.50;0.50;;;;;21.83;49.21;101072.88;6169545;22;45177;-70
2021/09/29 07:03:01;;;;;;;;;1.25;0.00;;;;;21.81;48.95;101086.22;6247653;22;58932;-70
2021/09/29 07:05:26;;;;;;;;;0.75;0.00;;;;;21.81;49.27;101082.69;6196074;22;45291;-70
2021/09/29 07:07:52;;;;;;;;;1.25;0.00;;;;;21.79;48.94;101092.47;6209021;22;45854;-70
2021/09/29 07:10:17;;;;;;;;;1.00;0.00;;;;;21.74;48.86;101089.97;6193847;22;55726;-70
2021/09/29 07:12:43;;;;;;;;;1.00;1.00;;;;;21.70;48.43;101098.94;6195513;22;52123;-72
2021/09/29 07:15:09;;;;;;;;;1.50;0.00;;;;;21.62;48.72;101096.53;6196042;22;45280;-70
2021/09/29 07:17:35;;;;;;;;;0.00;0.00;;;;;21.57;48.51;101100.25;6195391;22;45214;-70
2021/09/29 07:20:03;;;;;;;;;0.00;0.00;;;;;21.54;48.86;101105.66;6219828;22;45351;-70
2021/09/29 07:22:28;;;;;;;;;0.50;0.00;;;;;21.51;48.91;101111.06;6221279;22;45364;-70
2021/09/29 07:24:55;;;;;;;;;0.25;0.25;;;;;21.49;49.24;101115.56;6195314;22;45292;-70
2021/09/29 07:27:21;;;;;;;;;0.00;0.00;;;;;21.44;49.50;101102.41;6221006;22;45186;-70
2021/09/29 07:29:46;;;;;;;;;0.00;0.00;;;;;21.43;49.57;101105.97;6193991;22;45942;-72
2021/09/29 07:32:11;;;;;;;;;3.00;0.00;;;;;21.44;51.47;101102.41;6184265;22;45305;-71
2021/09/29 07:34:37;;;;;;;;;1.00;1.00;;;;;21.53;50.71;101114.53;6168143;22;63501;-71
2021/09/29 07:37:02;;;;;;;;;0.00;0.00;;;;;21.56;50.29;101122.44;6220099;22;46218;-72
2021/09/29 07:39:28;;;;;;;;;0.00;0.00;;;;;21.58;49.92;101126.78;6189627;22;45367;-71
2021/09/29 07:41:53;;;;;;;;;1.75;0.25;;;;;21.59;49.99;101132.94;6165281;22;45343;-70
2021/09/29 07:44:19;;;;;;;;;0.00;0.00;;;;;21.62;49.59;101136.38;6214389;22;52218;-70
2021/09/29 07:46:46;;;;;;;;;0.00;0.00;;;;;21.66;49.81;101135.38;6215245;22;46929;-71
2021/09/29 07:49:12;;;;;;;;;0.50;0.00;;;;;21.68;49.54;101140.63;6215777;22;45291;-70
2021/09/29 07:51:37;;;;;;;;;0.00;0.00;;;;;21.73;48.99;101144.03;6189047;22;45272;-71
2021/09/29 07:54:03;;;;;;;;;1.00;0.00;;;;;21.78;49.48;101150.06;6189857;22;51808;-71
2021/09/29 07:56:28;;;;;;;;;1.00;0.00;;;;;21.80;48.99;101158.84;6215553;22;47155;-70
2021/09/29 07:58:54;;;;;;;;;1.00;1.00;;;;;21.79;48.27;101165.09;6215310;22;45379;-70
2021/09/29 08:01:19;;;;;;;;;0.00;0.00;;;;;21.72;48.47;101161.78;6189886;22;47305;-70
2021/09/29 08:03:45;;;;;;;;;0.00;0.00;;;;;21.71;48.26;101159.13;6164510;22;59927;-72
2021/09/29 08:06:11;;;;;;;;;0.25;0.25;;;;;21.69;48.13;101163.63;6190068;22;47959;-71
2021/09/29 08:08:36;;;;;;;;;0.00;0.00;;;;;21.66;48.54;101169.03;6164988;22;45154;-71
2021/09/29 08:11:01;;;;;;;;;0.00;0.00;;;;;21.66;48.68;101169.91;6216081;22;45271;-70
2021/09/29 08:13:27;;;;;;;;;1.00;0.00;;;;;21.65;48.12;101176.16;6215630;22;45374;-71
2021/09/29 08:15:52;;;;;;;;;3.00;1.00;;;;;21.64;47.94;101176.19;6189245;22;64333;-71
2021/09/29 08:18:18;;;;;;;;;0.25;0.00;;;;;21.69;48.01;101187.53;6188689;22;56926;-70
2021/09/29 08:20:44;;;;;;;;;0.75;0.75;;;;;21.69;48.14;101183.09;6214994;22;45232;-70
2021/09/29 08:23:29;;;;;;;;;1.00;0.25;;;;;21.70;47.93;101187.50;6188230;22;45510;-71
2021/09/29 08:31:22;;;;;;;;;1.00;1.00;;;;;21.71;47.91;101191.88;6190811;22;45236;-69
2021/09/29 08:36:45;;;;;;;;;5.00;3.00;;;;;21.88;48.87;101211.78;6216380;22;45796;-69
2021/09/29 08:39:26;;;;;;;;;1.75;1.75;;;;;21.94;49.43;101220.44;6224390;22;45397;-71
2021/09/29 08:47:43;;;;;;;;;2.00;2.00;;;;;22.29;50.70;101229.16;6194783;22;45538;-72
2021/09/29 09:16:58;;;;;;;;;1.75;1.75;;;;;23.03;52.30;101257.78;6203338;22;45235;-72
2021/09/29 09:19:29;;;;;;;;;2.25;1.75;;;;;23.04;52.09;101256.00;6220115;22;47183;-72
2021/09/29 09:21:59;;;;;;;;;3.00;1.25;;;;;23.08;52.15;101270.94;6193967;22;45718;-72
2021/09/29 09:24:27;;;;;;;;;2.25;2.25;;;;;23.07;52.53;101271.84;6219051;22;45605;-72
2021/09/29 09:27:10;;;;;;;;;2.25;2.00;;;;;23.08;52.55;101269.13;6193382;22;45893;-72
2021/09/29 09:29:49;;;;;;;;;4.75;2.75;;;;;23.10;52.97;101291.25;6192848;22;47044;-72
2021/09/29 09:32:16;;;;;;;;;2.25;2.25;;;;;23.09;52.58;101281.53;6220143;22;45420;-70
2021/09/29 09:34:42;;;;;;;;;2.00;1.75;;;;;23.09;53.00;101278.00;6194138;22;45255;-69
2021/09/29 09:37:08;;;;;;;;;3.75;1.50;;;;;23.11;53.76;101290.34;6194139;22;45371;-70
2021/09/29 09:39:34;;;;;;;;;3.25;2.00;;;;;23.13;53.50;101284.97;6218564;22;45563;-70
2021/09/29 09:42:01;;;;;;;;;2.50;2.50;;;;;23.15;53.50;101288.44;6192795;22;51228;-70
2021/09/29 09:44:30;;;;;;;;;2.00;1.75;;;;;23.15;53.50;101284.91;6194245;22;45399;-71
2021/09/29 09:47:07;;;;;;;;;2.75;2.75;;;;;23.19;55.17;101292.72;6218194;22;45325;-71
2021/09/29 09:49:49;;;;;;;;;3.00;2.00;;;;;23.25;54.74;101299.66;6218774;22;47053;-71
2021/09/29 09:52:28;;;;;;;;;4.25;3.00;;;;;23.28;53.21;101304.84;6219059;22;45306;-70
2021/09/29 09:55:00;;;;;;;;;3.75;3.50;;;;;23.26;53.34;101304.91;6193478;22;45265;-70
2021/09/29 09:57:25;;;;;;;;;4.00;2.00;;;;;23.25;52.94;101305.84;6194136;22;45363;-71
2021/09/29 09:59:51;;;;;;;;;6.25;3.25;;;;;23.26;53.24;101299.59;6217879;22;64707;-68
2021/09/29 10:02:17;;;;;;;;;3.75;2.00;;;;;23.28;51.83;101308.41;6193360;22;45182;-68
2021/09/29 10:04:43;;;;;;;;;2.00;2.00;;;;;23.28;52.48;101316.41;6218482;22;45292;-69
2021/09/29 10:07:09;;;;;;;;;4.00;4.00;;;;;23.22;52.46;101307.75;6246040;22;45256;-72
2021/09/29 10:09:44;;;;;;;;;3.50;3.00;;;;;23.26;52.28;101310.25;6193608;22;45331;-69
2021/09/29 10:14:54;;;;;;;;;4.50;2.00;;;;;23.31;51.73;101320.75;6193365;22;45528;-68
2021/09/29 10:26:22;;;;;;;;;3.25;3.00;;;;;23.26;50.41;101317.34;6087241;23;45462;-69
2021/09/29 10:28:47;;;;;;;;;1.50;1.50;;;;;23.26;50.68;101333.34;6170219;22;45265;-68
2021/09/29 10:31:28;;;;;;;;;1.75;1.75;;;;;23.22;50.91;101335.25;6193404;22;47098;-71
2021/09/29 10:33:54;;;;;;;;;1.00;1.00;;;;;23.19;48.79;101329.13;6221706;22;45473;-70
2021/09/29 10:45:19;;;;;;;;;1.00;1.00;;;;;22.93;46.39;101378.78;6221709;22;45375;-71
2021/09/29 10:47:37;;;;;;;;;1.75;0.00;;;;;22.82;45.92;101376.44;6202490;22;45321;-70
2021/09/29 11:02:46;;;;;;;;;0.75;0.75;;;;;22.71;45.75;101385.69;6224192;22;45437;-71
2021/09/29 11:34:09;;;;;;;;;1.50;0.50;;;;;22.69;40.85;101417.66;6207602;22;45456;-72
2021/09/29 11:39:20;;;;;;;;;0.75;0.75;;;;;22.67;40.61;101426.59;6219585;22;45297;-72
2021/09/29 12:12:31;;;;;;;;;1.00;1.00;;;;;21.86;44.11;101488.19;6223180;22;45364;-71
2021/09/29 12:15:03;;;;;;;;;0.00;0.00;;;;;21.87;43.81;101494.38;6197159;22;45417;-72
2021/09/29 12:17:34;;;;;;;;;0.00;0.00;;;;;21.85;43.91;101489.13;6195341;22;45181;-72
2021/09/29 12:20:07;;;;;;;;;0.00;0.00;;;;;21.87;44.34;101481.97;6195572;22;45746;-71
2021/09/29 12:22:38;;;;;;;;;0.00;0.00;;;;;21.89;44.39;101479.25;6222161;22;45363;-71
2021/09/29 12:25:06;;;;;;;;;0.50;0.50;;;;;21.92;44.28;101477.41;6196154;22;45175;-71
2021/09/29 12:27:37;;;;;;;;;2.75;2.00;;;;;21.92;44.18;101477.41;6195146;22;45950;-73
2021/09/29 12:30:19;;;;;;;;;5.50;0.75;;;;;21.96;43.98;101475.53;6196273;22;45562;-72
2021/09/29 12:33:35;;;;;;;;;3.75;1.00;;;;;21.97;44.07;101474.63;6221367;22;45252;-72
2021/09/29 12:35:52;;;;;;;;;2.00;1.00;;;;;21.98;43.63;101477.25;6203422;22;45313;-71
2021/09/29 12:38:18;;;;;;;;;0.75;0.75;;;;;22.01;43.02;101476.31;6196065;22;45343;-74
2021/09/29 12:40:44;;;;;;;;;1.00;1.00;;;;;21.99;43.07;101486.97;6219371;22;47335;-72
2021/09/29 12:43:11;;;;;;;;;0.00;0.00;;;;;21.99;42.72;101480.78;6194007;22;45181;-72
2021/09/29 12:45:40;;;;;;;;;1.75;0.00;;;;;21.96;42.78;101484.38;6195465;22;45376;-72
2021/09/29 12:48:08;;;;;;;;;0.50;0.50;;;;;21.98;42.77;101474.59;6194609;22;45566;-73
2021/09/29 12:50:38;;;;;;;;;1.00;1.00;;;;;21.98;42.16;101474.59;6194775;22;47791;-73
2021/09/29 12:53:17;;;;;;;;;0.75;0.00;;;;;21.98;42.50;101490.56;6220781;22;45339;-71
2021/09/29 12:55:48;;;;;;;;;0.50;0.50;;;;;21.96;41.80;101483.50;6201048;22;45278;-73
2021/09/29 12:58:13;;;;;;;;;3.00;0.75;;;;;22.00;42.33;101502.00;6197084;22;45353;-73
2021/09/29 13:00:38;;;;;;;;;0.25;0.25;;;;;22.01;42.07;101501.09;6169179;22;47249;-72
2021/09/29 13:03:06;;;;;;;;;1.00;1.00;;;;;22.03;42.19;101493.06;6218690;22;62677;-73
2021/09/29 13:05:32;;;;;;;;;1.25;1.00;;;;;22.05;42.12;101506.31;6170448;22;45272;-72
2021/09/29 13:07:57;;;;;;;;;0.00;0.00;;;;;22.04;41.67;101510.78;6247281;22;45520;-74
2021/09/29 13:10:23;;;;;;;;;2.00;0.00;;;;;22.00;41.85;101506.47;6194366;22;46692;-70
2021/09/29 13:12:51;;;;;;;;;0.00;0.00;;;;;22.04;41.76;101517.88;6195176;22;45242;-70
2021/09/29 13:15:17;;;;;;;;;0.75;0.75;;;;;22.01;41.54;101527.69;6220806;22;45318;-70
2021/09/29 13:17:45;;;;;;;;;2.00;2.00;;;;;22.05;42.23;101535.56;6194739;22;45377;-69
2021/09/29 13:20:16;;;;;;;;;2.00;1.00;;;;;22.02;42.51;101547.16;6219927;22;45423;-69
2021/09/29 13:22:42;;;;;;;;;0.25;0.25;;;;;22.03;42.50;101548.91;6221634;22;45303;-67
2021/09/29 13:38:18;;;;;;;;;1.00;0.75;;;;;22.04;41.21;101561.28;6195158;22;45507;-68
2021/09/29 13:40:44;;;;;;;;;1.00;1.00;;;;;22.06;41.22;101558.56;6194306;22;47250;-67
2021/09/29 13:43:10;;;;;;;;;0.75;0.00;;;;;22.05;41.95;101555.03;6219149;22;45273;-67
2021/09/29 13:45:36;;;;;;;;;1.00;1.00;;;;;22.03;41.12;101548.91;6195133;22;45252;-67
2021/09/29 13:48:02;;;;;;;;;1.50;1.50;;;;;22.05;41.10;101557.69;6195274;22;45368;-68
2021/09/29 13:50:28;;;;;;;;;1.50;1.00;;;;;22.05;42.02;101557.69;6219998;22;45729;-69
2021/09/29 13:52:53;;;;;;;;;1.00;1.00;;;;;22.05;41.29;101573.66;6193201;22;45506;-69
2021/09/29 13:55:21;;;;;;;;;0.75;0.75;;;;;22.06;41.51;101556.78;6194877;22;45342;-69
2021/09/29 13:58:00;;;;;;;;;0.00;0.00;;;;;22.07;41.44;101574.56;6220166;22;45226;-69